createdAt,value
2023-10-26T00:02:17.983Z,-2.12
2023-10-26T00:04:45.110Z,-2.14
2023-10-26T00:07:12.294Z,-2.05
2023-10-26T00:09:39.403Z,-2.01
2023-10-26T00:12:06.731Z,-2.02
2023-10-26T00:14:34.903Z,-1.98
2023-10-26T00:17:01.925Z,-1.98
2023-10-26T00:19:28.935Z,-2.09
2023-10-26T00:21:55.923Z,-2.14
2023-10-26T00:24:23.166Z,-2.21
2023-10-26T00:26:50.521Z,-2.20
2023-10-26T00:29:17.391Z,-2.12
2023-10-26T00:31:44.231Z,-2.15
2023-10-26T00:34:11.254Z,-2.21
2023-10-26T00:36:38.225Z,-2.24
2023-10-26T00:39:05.220Z,-2.19
2023-10-26T00:41:32.417Z,-2.18
2023-10-26T00:43:59.300Z,-2.15
2023-10-26T00:46:26.850Z,-2.18
2023-10-26T00:48:54.591Z,-2.29
2023-10-26T00:51:22.542Z,-2.38
2023-10-26T00:53:50.716Z,-2.44
2023-10-26T00:56:22.019Z,-2.43
2023-10-26T00:58:49.704Z,-2.38
2023-10-26T01:01:17.435Z,-2.33
2023-10-26T01:03:47.271Z,-2.26
2023-10-26T01:06:16.694Z,-2.21
2023-10-26T01:08:43.848Z,-2.17
2023-10-26T01:11:10.950Z,-2.13
2023-10-26T01:13:38.326Z,-2.07
2023-10-26T01:16:05.888Z,-2.05
2023-10-26T01:18:33.169Z,-2.01
2023-10-26T01:21:00.467Z,-1.98
2023-10-26T01:23:27.389Z,-2.05
2023-10-26T01:25:57.123Z,-2.06
2023-10-26T01:28:24.738Z,-2.14
2023-10-26T01:30:52.682Z,-2.07
2023-10-26T01:33:20.609Z,-2.06
2023-10-26T01:35:47.828Z,-2.05
2023-10-26T01:38:14.982Z,-2.03
2023-10-26T01:40:42.326Z,-2.01
2023-10-26T01:43:09.316Z,-1.98
2023-10-26T01:45:36.301Z,-2.03
2023-10-26T01:48:04.374Z,-2.11
2023-10-26T01:50:32.553Z,-2.18
2023-10-26T01:52:59.548Z,-2.28
2023-10-26T01:55:26.690Z,-2.25
2023-10-26T01:57:54.016Z,-2.33
2023-10-26T02:00:21.206Z,-2.41
2023-10-26T02:02:50.345Z,-2.43
2023-10-26T02:05:17.776Z,-2.45
2023-10-26T02:07:45.027Z,-2.49
2023-10-26T02:10:16.092Z,-2.52
2023-10-26T02:12:43.168Z,-2.58
2023-10-26T02:15:11.027Z,-2.58
2023-10-26T02:17:38.432Z,-2.45
2023-10-26T02:20:06.069Z,-2.40
2023-10-26T02:22:33.011Z,-2.27
2023-10-26T02:25:00.022Z,-2.24
2023-10-26T02:27:26.965Z,-2.23
2023-10-26T02:29:53.879Z,-2.26
2023-10-26T02:32:20.736Z,-2.37
2023-10-26T02:34:47.851Z,-2.50
2023-10-26T02:37:14.941Z,-2.52
2023-10-26T02:39:41.831Z,-2.54
2023-10-26T02:42:10.225Z,-2.56
2023-10-26T02:44:37.637Z,-2.56
2023-10-26T02:47:04.804Z,-2.59
2023-10-26T02:49:32.215Z,-2.68
2023-10-26T02:51:59.146Z,-2.73
2023-10-26T02:54:29.434Z,-2.73
2023-10-26T02:56:56.526Z,-2.78
2023-10-26T02:59:23.434Z,-2.76
2023-10-26T03:01:50.318Z,-2.81
2023-10-26T03:04:17.545Z,-2.83
2023-10-26T03:06:44.670Z,-2.83
2023-10-26T03:09:11.865Z,-2.84
2023-10-26T03:11:38.864Z,-2.79
2023-10-26T03:14:05.819Z,-2.78
2023-10-26T03:16:34.422Z,-2.72
2023-10-26T03:19:01.525Z,-2.72
2023-10-26T03:21:28.839Z,-2.73
2023-10-26T03:23:55.765Z,-2.79
2023-10-26T03:26:23.155Z,-2.83
2023-10-26T03:28:50.967Z,-2.81
2023-10-26T03:31:18.187Z,-2.73
2023-10-26T03:33:45.283Z,-2.70
2023-10-26T03:36:16.996Z,-2.64
2023-10-26T03:38:44.756Z,-2.71
2023-10-26T03:41:11.880Z,-2.61
2023-10-26T03:43:38.814Z,-2.56
2023-10-26T03:46:06.231Z,-2.54
2023-10-26T03:48:35.372Z,-2.47
2023-10-26T03:51:03.410Z,-2.43
2023-10-26T03:53:31.203Z,-2.47
2023-10-26T03:55:59.349Z,-2.55
2023-10-26T03:58:26.848Z,-2.61
2023-10-26T04:00:53.949Z,-2.66
2023-10-26T04:03:20.989Z,-2.79
2023-10-26T04:05:48.005Z,-2.88
2023-10-26T04:08:15.172Z,-2.94
2023-10-26T04:10:45.479Z,-2.86
2023-10-26T04:13:12.386Z,-2.80
2023-10-26T04:15:39.351Z,-2.80
2023-10-26T04:18:09.799Z,-2.79
2023-10-26T04:20:36.736Z,-2.83
2023-10-26T04:23:05.077Z,-2.81
2023-10-26T04:25:42.340Z,-2.77
2023-10-26T04:28:19.483Z,-2.73
2023-10-26T04:30:50.640Z,-2.64
2023-10-26T04:33:18.352Z,-2.58
2023-10-26T04:35:47.226Z,-2.52
2023-10-26T04:38:14.151Z,-2.55
2023-10-26T04:40:42.341Z,-2.57
2023-10-26T04:43:10.241Z,-2.64
2023-10-26T04:45:37.290Z,-2.66
2023-10-26T04:48:04.897Z,-2.69
2023-10-26T04:50:32.470Z,-2.75
2023-10-26T04:53:00.314Z,-2.73
2023-10-26T04:55:35.363Z,-2.69
2023-10-26T04:58:03.680Z,-2.73
2023-10-26T05:00:31.763Z,-2.80
2023-10-26T05:02:59.091Z,-2.84
2023-10-26T05:05:26.391Z,-2.77
2023-10-26T05:07:53.727Z,-2.69
2023-10-26T05:10:21.519Z,-2.60
2023-10-26T05:12:48.491Z,-2.62
2023-10-26T05:15:15.593Z,-2.70
2023-10-26T05:17:42.866Z,-2.71
2023-10-26T05:20:10.816Z,-2.60
2023-10-26T05:22:38.186Z,-2.59
2023-10-26T05:25:06.068Z,-2.58
2023-10-26T05:27:36.638Z,-2.57
2023-10-26T05:30:05.539Z,-2.54
2023-10-26T05:32:32.735Z,-2.54
2023-10-26T05:34:59.881Z,-2.63
2023-10-26T05:37:26.874Z,-2.65
2023-10-26T05:39:53.737Z,-2.61
2023-10-26T05:42:20.711Z,-2.53
2023-10-26T05:44:47.753Z,-2.51
2023-10-26T05:47:20.102Z,-2.54
2023-10-26T05:49:48.097Z,-2.46
2023-10-26T05:52:15.076Z,-2.45
2023-10-26T05:54:42.573Z,-2.57
2023-10-26T05:57:09.980Z,-2.68
2023-10-26T05:59:36.892Z,-2.77
2023-10-26T06:02:03.778Z,-2.77
2023-10-26T06:04:30.835Z,-2.69
2023-10-26T06:06:57.718Z,-2.66
2023-10-26T06:09:25.506Z,-2.69
2023-10-26T06:11:53.215Z,-2.65
2023-10-26T06:14:20.653Z,-2.55
2023-10-26T06:16:48.070Z,-2.40
2023-10-26T06:19:15.000Z,-2.36
2023-10-26T06:21:41.925Z,-2.33
2023-10-26T06:24:09.192Z,-2.34
2023-10-26T06:26:36.160Z,-2.37
2023-10-26T06:29:04.284Z,-2.33
2023-10-26T06:31:31.244Z,-2.33
2023-10-26T06:33:58.425Z,-2.42
2023-10-26T06:36:25.345Z,-2.53
2023-10-26T06:38:52.426Z,-2.59
2023-10-26T06:41:19.356Z,-2.58
2023-10-26T06:43:46.280Z,-2.55
2023-10-26T06:46:13.385Z,-2.50
2023-10-26T06:48:40.342Z,-2.45
2023-10-26T06:51:07.758Z,-2.38
2023-10-26T06:53:34.951Z,-2.33
2023-10-26T06:56:01.971Z,-2.28
2023-10-26T06:58:29.100Z,-2.29
2023-10-26T07:00:56.147Z,-2.39
2023-10-26T07:03:23.390Z,-2.41
2023-10-26T07:05:50.542Z,-2.38
2023-10-26T07:08:18.007Z,-2.36
2023-10-26T07:10:45.168Z,-2.36
2023-10-26T07:13:13.147Z,-2.40
2023-10-26T07:15:40.461Z,-2.44
2023-10-26T07:18:07.604Z,-2.44
2023-10-26T07:20:34.584Z,-2.43
2023-10-26T07:23:01.630Z,-2.41
2023-10-26T07:25:28.731Z,-2.34
2023-10-26T07:27:56.163Z,-2.27
2023-10-26T07:30:23.822Z,-2.25
2023-10-26T07:32:51.039Z,-2.28
2023-10-26T07:35:18.473Z,-2.33
2023-10-26T07:37:50.029Z,-2.38
2023-10-26T07:40:29.265Z,-2.50
2023-10-26T07:42:58.003Z,-2.48
2023-10-26T07:45:27.162Z,-2.43
2023-10-26T07:48:01.861Z,-2.39
2023-10-26T07:50:30.151Z,-2.44
2023-10-26T07:52:57.403Z,-2.42
2023-10-26T07:55:24.370Z,-2.31
2023-10-26T07:57:51.634Z,-2.16
2023-10-26T08:00:19.063Z,-2.00
2023-10-26T08:02:46.265Z,-1.86
2023-10-26T08:05:16.458Z,-1.75
2023-10-26T08:07:43.558Z,-1.63
2023-10-26T08:10:10.793Z,-1.55
2023-10-26T08:12:38.108Z,-1.53
2023-10-26T08:16:09.135Z,-1.53
2023-10-26T08:17:53.073Z,-1.52
2023-10-26T08:20:20.755Z,-1.54
2023-10-26T08:22:47.996Z,-1.52
2023-10-26T08:25:18.841Z,-1.49
2023-10-26T08:27:47.850Z,-1.52
2023-10-26T08:30:14.991Z,-1.56
2023-10-26T08:32:42.003Z,-1.63
2023-10-26T08:35:09.204Z,-1.62
2023-10-26T08:37:36.269Z,-1.65
2023-10-26T08:40:04.162Z,-1.69
2023-10-26T08:42:31.763Z,-1.69
2023-10-26T08:45:00.557Z,-1.67
2023-10-26T08:47:29.154Z,-1.67
2023-10-26T08:50:14.845Z,-1.65
2023-10-26T08:52:43.108Z,-1.58
2023-10-26T08:55:10.429Z,-1.53
2023-10-26T08:57:55.300Z,-1.45
2023-10-26T09:00:24.715Z,-1.55
2023-10-26T09:02:52.422Z,-1.55
2023-10-26T09:05:19.740Z,-1.52
2023-10-26T09:07:46.849Z,-1.50
2023-10-26T09:10:13.745Z,-1.46
2023-10-26T09:12:40.804Z,-1.45
2023-10-26T09:15:08.159Z,-1.40
2023-10-26T09:17:36.083Z,-1.35
2023-10-26T09:20:21.962Z,-1.15
2023-10-26T09:22:49.255Z,-1.14
2023-10-26T09:25:16.853Z,-1.11
2023-10-26T09:27:45.534Z,-1.10
2023-10-26T09:30:43.552Z,-1.00
2023-10-26T09:33:24.661Z,-0.93
2023-10-26T09:35:51.933Z,-0.88
2023-10-26T09:38:33.902Z,-0.75
2023-10-26T09:41:00.920Z,-0.72
2023-10-26T09:43:27.813Z,-0.93
2023-10-26T09:45:54.833Z,-1.00
2023-10-26T09:48:21.995Z,-1.01
2023-10-26T09:50:50.278Z,-0.94
2023-10-26T09:53:19.339Z,-0.91
2023-10-26T09:55:48.503Z,-0.83
2023-10-26T09:58:17.926Z,-0.78
2023-10-26T10:00:44.957Z,-0.84
2023-10-26T10:03:16.689Z,-0.82
2023-10-26T10:05:45.226Z,-0.85
2023-10-26T10:08:12.651Z,-0.75
2023-10-26T10:11:18.329Z,-0.49
2023-10-26T10:13:45.581Z,-0.33
2023-10-26T10:16:37.875Z,0.04
2023-10-26T10:19:20.727Z,0.29
2023-10-26T10:21:53.179Z,0.47
2023-10-26T10:24:38.951Z,0.67
2023-10-26T10:27:12.859Z,0.67
2023-10-26T10:29:43.759Z,0.65
2023-10-26T10:32:12.200Z,0.49
2023-10-26T10:34:47.260Z,0.43
2023-10-26T10:37:24.339Z,0.29
2023-10-26T10:40:16.376Z,0.37
2023-10-26T10:42:52.007Z,0.33
2023-10-26T10:45:20.015Z,0.25
2023-10-26T10:47:50.747Z,0.15
2023-10-26T10:50:22.810Z,0.19
2023-10-26T10:52:55.111Z,0.23
2023-10-26T10:55:30.780Z,0.33
2023-10-26T10:57:59.050Z,0.28
2023-10-26T11:00:47.430Z,0.43
2023-10-26T11:03:21.365Z,0.43
2023-10-26T11:05:49.365Z,0.69
2023-10-26T11:08:16.396Z,0.69
2023-10-26T11:10:49.716Z,0.69
2023-10-26T11:13:23.125Z,0.60
2023-10-26T11:15:50.422Z,0.61
2023-10-26T11:18:17.603Z,0.64
2023-10-26T11:20:47.741Z,0.70
2023-10-26T11:23:20.012Z,0.67
2023-10-26T11:25:46.964Z,0.69
2023-10-26T11:28:14.381Z,0.76
2023-10-26T11:30:52.602Z,0.91
2023-10-26T11:33:35.195Z,0.94
2023-10-26T11:36:12.553Z,0.92
2023-10-26T11:38:48.112Z,0.95
2023-10-26T11:41:25.761Z,0.90
2023-10-26T11:43:52.978Z,0.72
2023-10-26T11:46:30.837Z,0.72
2023-10-26T11:48:58.081Z,0.46
2023-10-26T11:51:25.413Z,0.22
2023-10-26T11:53:52.328Z,0.10
2023-10-26T11:56:19.717Z,0.12
2023-10-26T11:58:48.172Z,0.12
2023-10-26T12:01:15.263Z,0.13
2023-10-26T12:03:46.645Z,0.29
2023-10-26T12:06:14.386Z,0.22
2023-10-26T12:08:41.531Z,0.14
2023-10-26T12:11:08.519Z,0.18
2023-10-26T12:13:36.851Z,0.19
2023-10-26T12:16:04.148Z,0.23
2023-10-26T12:18:31.154Z,0.21
2023-10-26T12:20:58.155Z,0.19
2023-10-26T12:23:25.127Z,0.25
2023-10-26T12:25:52.027Z,0.16
2023-10-26T12:28:25.661Z,0.05
2023-10-26T12:30:54.871Z,-0.07
2023-10-26T12:33:22.200Z,-0.16
2023-10-26T12:35:49.359Z,-0.28
2023-10-26T12:38:16.520Z,-0.34
2023-10-26T12:40:43.523Z,-0.40
2023-10-26T12:43:10.449Z,-0.35
2023-10-26T12:45:38.137Z,-0.40
2023-10-26T12:48:05.398Z,-0.51
2023-10-26T12:50:32.366Z,-0.55
2023-10-26T12:53:00.079Z,-0.56
2023-10-26T12:55:26.923Z,-0.56
2023-10-26T12:57:55.319Z,-0.53
2023-10-26T13:00:23.650Z,-0.47
2023-10-26T13:02:50.719Z,-0.50
2023-10-26T13:05:17.586Z,-0.53
2023-10-26T13:07:44.392Z,-0.54
2023-10-26T13:10:11.453Z,-0.57
2023-10-26T13:12:40.221Z,-0.60
2023-10-26T13:15:07.694Z,-0.61
2023-10-26T13:17:35.203Z,-0.67
2023-10-26T13:20:02.524Z,-0.59
2023-10-26T13:22:31.341Z,-0.51
2023-10-26T13:24:58.385Z,-0.51
2023-10-26T13:27:26.860Z,-0.55
2023-10-26T13:29:53.850Z,-0.59
2023-10-26T13:32:20.744Z,-0.64
2023-10-26T13:34:47.639Z,-0.61
2023-10-26T13:37:14.665Z,-0.58
2023-10-26T13:39:41.650Z,-0.56
2023-10-26T13:42:08.656Z,-0.47
2023-10-26T13:44:35.616Z,-0.49
2023-10-26T13:47:02.680Z,-0.45
2023-10-26T13:49:29.601Z,-0.40
2023-10-26T13:51:56.586Z,-0.36
2023-10-26T13:54:23.628Z,-0.41
2023-10-26T13:56:50.606Z,-0.41
2023-10-26T13:59:17.528Z,-0.43
2023-10-26T14:01:44.387Z,-0.45
2023-10-26T14:04:11.248Z,-0.48
2023-10-26T14:06:38.173Z,-0.53
2023-10-26T14:09:05.274Z,-0.51
2023-10-26T14:11:32.681Z,-0.51
2023-10-26T14:13:59.822Z,-0.54
2023-10-26T14:16:29.047Z,-0.52
2023-10-26T14:19:00.500Z,-0.53
2023-10-26T14:21:28.141Z,-0.58
2023-10-26T14:23:55.118Z,-0.56
2023-10-26T14:26:22.075Z,-0.61
2023-10-26T14:28:49.074Z,-0.67
2023-10-26T14:31:19.029Z,-0.68
2023-10-26T14:33:45.980Z,-0.44
2023-10-26T14:36:13.078Z,-0.05
2023-10-26T14:38:40.092Z,0.10
2023-10-26T14:41:06.980Z,0.31
2023-10-26T14:43:33.835Z,0.60
2023-10-26T14:46:00.925Z,0.61
2023-10-26T14:48:28.313Z,0.38
2023-10-26T14:50:59.813Z,0.30
2023-10-26T14:53:26.790Z,0.26
2023-10-26T14:55:53.880Z,0.14
2023-10-26T14:58:22.055Z,-0.07
2023-10-26T15:00:51.332Z,-0.28
2023-10-26T15:03:18.344Z,-0.44
2023-10-26T15:05:46.005Z,-0.58
2023-10-26T15:08:13.194Z,-0.69
2023-10-26T15:10:51.356Z,-0.68
2023-10-26T15:13:20.036Z,-0.81
2023-10-26T15:15:48.637Z,-0.84
2023-10-26T15:18:15.631Z,-0.86
2023-10-26T15:20:42.527Z,-0.85
2023-10-26T15:23:10.427Z,-0.83
2023-10-26T15:25:37.608Z,-0.81
2023-10-26T15:28:04.875Z,-0.81
2023-10-26T15:30:32.123Z,-0.78
2023-10-26T15:32:59.333Z,-0.78
2023-10-26T15:35:28.118Z,-0.79
2023-10-26T15:37:55.574Z,-0.81
2023-10-26T15:40:22.639Z,-0.84
2023-10-26T15:42:49.776Z,-0.84
2023-10-26T15:45:17.028Z,-0.82
2023-10-26T15:47:45.077Z,-0.82
2023-10-26T15:50:12.270Z,-0.83
2023-10-26T15:52:39.192Z,-0.82
2023-10-26T15:55:06.822Z,-0.82
2023-10-26T15:57:34.312Z,-0.83
2023-10-26T16:00:01.413Z,-0.85
2023-10-26T16:02:28.524Z,-0.85
2023-10-26T16:04:55.521Z,-0.87
2023-10-26T16:07:22.485Z,-0.88
2023-10-26T16:09:49.721Z,-0.92
2023-10-26T16:12:17.419Z,-1.00
2023-10-26T16:14:44.674Z,-1.04
2023-10-26T16:17:11.902Z,-1.04
2023-10-26T16:19:38.860Z,-1.07
2023-10-26T16:22:05.913Z,-1.08
2023-10-26T16:24:32.984Z,-1.11
2023-10-26T16:26:59.914Z,-1.13
2023-10-26T16:29:26.794Z,-1.13
2023-10-26T16:31:53.915Z,-1.11
2023-10-26T16:34:20.884Z,-1.12
2023-10-26T16:36:50.685Z,-1.12
2023-10-26T16:39:18.750Z,-1.12
2023-10-26T16:41:45.602Z,-1.12
2023-10-26T16:44:12.495Z,-1.10
2023-10-26T16:46:39.413Z,-1.09
2023-10-26T16:49:06.438Z,-1.08
2023-10-26T16:51:33.358Z,-1.07
2023-10-26T16:54:00.347Z,-1.07
2023-10-26T16:56:28.689Z,-1.08
2023-10-26T16:58:55.586Z,-1.14
2023-10-26T17:01:23.918Z,-1.19
2023-10-26T17:03:50.905Z,-1.25
2023-10-26T17:06:17.945Z,-1.26
2023-10-26T17:08:44.866Z,-1.29
2023-10-26T17:11:11.796Z,-1.28
2023-10-26T17:13:39.803Z,-1.27
2023-10-26T17:16:08.109Z,-1.27
2023-10-26T17:18:35.040Z,-1.28
2023-10-26T17:21:02.039Z,-1.28
2023-10-26T17:23:29.114Z,-1.28
2023-10-26T17:25:55.967Z,-1.31
2023-10-26T17:28:22.923Z,-1.38
2023-10-26T17:30:50.489Z,-1.47
2023-10-26T17:33:20.845Z,-1.48
2023-10-26T17:35:51.256Z,-1.55
2023-10-26T17:38:18.426Z,-1.59
2023-10-26T17:40:46.864Z,-1.62
2023-10-26T17:43:14.880Z,-1.63
2023-10-26T17:45:42.301Z,-1.65
2023-10-26T17:48:10.933Z,-1.64
2023-10-26T17:50:43.684Z,-1.64
2023-10-26T17:53:11.030Z,-1.67
2023-10-26T17:55:38.449Z,-1.70
2023-10-26T17:58:06.032Z,-1.75
2023-10-26T18:00:33.587Z,-1.76
2023-10-26T18:03:00.941Z,-1.76
2023-10-26T18:05:28.625Z,-1.75
2023-10-26T18:07:56.114Z,-1.76
2023-10-26T18:10:23.442Z,-1.79
2023-10-26T18:12:50.751Z,-1.85
2023-10-26T18:15:18.375Z,-1.91
2023-10-26T18:17:45.646Z,-2.03
2023-10-26T18:20:13.243Z,-2.18
2023-10-26T18:22:40.858Z,-2.33
2023-10-26T18:25:10.749Z,-2.40
2023-10-26T18:27:38.526Z,-2.50
2023-10-26T18:30:06.951Z,-2.56
2023-10-26T18:32:34.059Z,-2.59
2023-10-26T18:35:01.849Z,-2.58
2023-10-26T18:37:33.599Z,-2.60
2023-10-26T18:40:01.086Z,-2.63
2023-10-26T18:42:28.666Z,-2.64
2023-10-26T18:44:56.358Z,-2.70
2023-10-26T18:47:24.337Z,-2.73
2023-10-26T18:49:51.966Z,-2.76
2023-10-26T18:52:19.608Z,-2.81
2023-10-26T18:54:47.315Z,-2.82
2023-10-26T18:57:15.050Z,-2.83
2023-10-26T18:59:43.225Z,-2.83
2023-10-26T19:02:10.906Z,-2.82
2023-10-26T19:04:39.902Z,-2.78
2023-10-26T19:07:08.695Z,-2.73
2023-10-26T19:09:36.662Z,-2.72
2023-10-26T19:12:04.585Z,-2.74
2023-10-26T19:14:33.336Z,-2.76
2023-10-26T19:17:01.397Z,-2.78
2023-10-26T19:19:29.239Z,-2.78
2023-10-26T19:21:56.874Z,-2.79
2023-10-26T19:24:25.654Z,-2.79
2023-10-26T19:26:53.284Z,-2.81
2023-10-26T19:29:20.841Z,-2.81
2023-10-26T19:31:48.757Z,-2.81
2023-10-26T19:34:16.430Z,-2.83
2023-10-26T19:36:47.274Z,-2.86
2023-10-26T19:39:23.676Z,-2.88
2023-10-26T19:42:00.402Z,-2.84
2023-10-26T19:44:27.972Z,-2.80
2023-10-26T19:46:55.708Z,-2.77
2023-10-26T19:49:23.195Z,-2.76
2023-10-26T19:51:50.919Z,-2.73
2023-10-26T19:54:19.855Z,-2.72
2023-10-26T19:56:47.080Z,-2.71
2023-10-26T19:59:14.691Z,-2.73
2023-10-26T20:01:42.054Z,-2.75
2023-10-26T20:04:09.133Z,-2.78
2023-10-26T20:06:36.020Z,-2.80
2023-10-26T20:09:03.741Z,-2.80
2023-10-26T20:11:30.751Z,-2.77
2023-10-26T20:13:57.780Z,-2.77
2023-10-26T20:16:25.173Z,-2.78
2023-10-26T20:18:52.323Z,-2.80
2023-10-26T20:21:19.375Z,-2.85
2023-10-26T20:23:46.394Z,-2.85
2023-10-26T20:26:13.347Z,-2.86
2023-10-26T20:28:40.320Z,-2.86
2023-10-26T20:31:08.042Z,-2.92
2023-10-26T20:33:35.186Z,-2.96
2023-10-26T20:36:02.649Z,-2.98
2023-10-26T20:38:29.729Z,-3.01
2023-10-26T20:40:56.706Z,-3.00
2023-10-26T20:43:23.703Z,-2.99
2023-10-26T20:46:01.092Z,-2.96
2023-10-26T20:48:30.138Z,-2.99
2023-10-26T20:50:59.646Z,-2.98
2023-10-26T20:53:30.950Z,-2.96
2023-10-26T20:55:59.404Z,-2.94
2023-10-26T20:58:26.694Z,-2.92
2023-10-26T21:00:54.042Z,-2.90
2023-10-26T21:03:21.069Z,-2.90
2023-10-26T21:05:48.238Z,-2.89
2023-10-26T21:08:16.300Z,-2.89
2023-10-26T21:10:43.520Z,-2.92
2023-10-26T21:13:10.734Z,-2.95
2023-10-26T21:15:40.576Z,-2.99
2023-10-26T21:18:07.526Z,-3.00
2023-10-26T21:20:38.645Z,-3.00
2023-10-26T21:23:05.537Z,-3.02
2023-10-26T21:25:43.841Z,-3.01
2023-10-26T21:28:11.837Z,-3.00
2023-10-26T21:30:39.960Z,-3.03
2023-10-26T21:33:07.212Z,-3.07
2023-10-26T21:35:37.829Z,-3.03
2023-10-26T21:38:05.806Z,-3.06
2023-10-26T21:40:37.233Z,-3.03
2023-10-26T21:43:08.172Z,-2.96
2023-10-26T21:45:38.641Z,-3.01
2023-10-26T21:48:05.970Z,-3.04
2023-10-26T21:50:35.112Z,-3.00
2023-10-26T21:53:02.034Z,-3.03
2023-10-26T21:55:28.931Z,-3.04
2023-10-26T21:57:55.902Z,-3.03
2023-10-26T22:00:26.428Z,-3.06
2023-10-26T22:02:53.601Z,-3.06
2023-10-26T22:05:21.485Z,-3.02
2023-10-26T22:07:48.434Z,-3.00
2023-10-26T22:10:15.362Z,-2.98
2023-10-26T22:12:42.257Z,-2.96
2023-10-26T22:15:09.614Z,-2.94
2023-10-26T22:17:36.660Z,-2.98
2023-10-26T22:20:04.723Z,-3.00
2023-10-26T22:22:31.788Z,-3.01
2023-10-26T22:24:58.755Z,-3.02
2023-10-26T22:27:25.733Z,-3.02
2023-10-26T22:29:52.625Z,-3.02
2023-10-26T22:32:19.524Z,-2.96
2023-10-26T22:34:46.477Z,-2.96
2023-10-26T22:37:13.339Z,-2.93
2023-10-26T22:39:40.327Z,-2.97
2023-10-26T22:42:07.244Z,-3.00
2023-10-26T22:44:34.281Z,-3.00
2023-10-26T22:47:01.160Z,-2.96
2023-10-26T22:49:28.082Z,-2.95
2023-10-26T22:51:56.549Z,-2.92
2023-10-26T22:54:23.593Z,-2.89
2023-10-26T22:56:50.474Z,-2.91
2023-10-26T22:59:17.334Z,-2.97
2023-10-26T23:01:45.247Z,-3.01
2023-10-26T23:04:12.331Z,-3.06
2023-10-26T23:06:39.701Z,-3.05
2023-10-26T23:09:06.641Z,-3.01
2023-10-26T23:11:34.062Z,-3.02
2023-10-26T23:14:01.088Z,-3.02
2023-10-26T23:16:28.065Z,-2.99
2023-10-26T23:18:56.476Z,-2.97
2023-10-26T23:21:23.508Z,-2.94
2023-10-26T23:23:50.404Z,-2.96
2023-10-26T23:26:17.490Z,-2.94
2023-10-26T23:28:44.418Z,-2.96
2023-10-26T23:31:11.862Z,-2.97
2023-10-26T23:33:39.263Z,-2.95
2023-10-26T23:36:07.412Z,-2.95
2023-10-26T23:38:34.868Z,-2.94
2023-10-26T23:41:01.944Z,-2.88
2023-10-26T23:43:29.696Z,-2.86
2023-10-26T23:45:59.035Z,-2.84
2023-10-26T23:48:26.141Z,-2.90
2023-10-26T23:50:53.382Z,-2.94
2023-10-26T23:53:20.903Z,-2.94
2023-10-26T23:55:50.937Z,-2.92
2023-10-26T23:58:17.934Z,-2.93
